Terminal Aerodrome Forecast
Issued by NWS Shreveport, LA

Home | Current Version | Previous Version | Text Only | Print | Product List | Glossary On
Versions: 1 2 3 4 5 6 7 8 9 10 11 12 13 14 15 16 17 18 19
623
FTUS44 KSHV 231244 AAA
TAFMLU
TAF AMD
KMLU 231244Z 2313/2412 17003KT P6SM BKN008
      TEMPO 2313/2315 6SM BR BKN015 BKN120 BKN280
     FM231500 24005KT P6SM SCT035 BKN120 BKN280
     FM231800 23005KT P6SM VCTS SCT050CB BKN250
     FM232100 22006KT P6SM BKN050 OVC250
     FM240100 20004KT P6SM BKN100=

USA.gov is the U.S. government's official web portal to all federal, state and local government web resources and services.